hwlogo.jpg (8581 bytes)
Home Your Weather Products Services Weather On Your Site Contact
HW Version Logo
Weather Info
Your Weather (Options)
Canadian Weather
International Weather
Enter your " Place, State", US Zip Code or ICAO:  
Forecast Information Radar Information
Port Hardy, British Columbia, Canada  Lat: 50.68N, Lon: 127.37W
ICAO Used: CYZT
Current Conditions
Updated: 11:00 PM PST SUN FEB 18 2018
Sun & Moon Information
Clear
Clear
Temp: -4°C
Humidity: 68%
Wind Speed: W 8 MPH
Barometer: 1022 mb
Dewpoint: -9°C
Heat Index: -4°C
Wind Chill: -9°C
Civil Twilight: 7:02 AM PST Moon Phase:
Waxing Crescent Moon
Sunrise: 7:36 AM PST
Sunset: 5:49 PM PST
Civil Twilight: 6:23 PM PST
Forecast for Port Hardy, BC:
(Forecast based on TAF for )
1142 PM PST SUN FEB 18 2018
  
OVERNIGHT MORNING
Fair Fair
ZoneCast:
Dated: 1142 PM PST SUN FEB 18 2018
Overnight...Clear winds variable in direction at 3 mph. Becoming fair with winds from the eastsoutheast at 9 mph.

Morning...Fair with winds from the eastsoutheast at 9 mph.

Original Encoded TAF:
Dated: 1142 PM PST SUN FEB 18 2018
2018/02/19 07:42
TAF CYZT 190638Z 1907/1919 VRB03KT P6SM SKC 
      BECMG 1908/1910 11008KT 
      RMK NXT FCST BY 191300Z